Time;durP1;ratioP1;P1;durP2;ratioP2;P2;SDS_P1;SDS_P2;PMS_P1;PMS_P2;Temp;Humidity;BMP_temperature;BMP_pressure;BME280_temperature;BME280_humidity;BME280_pressure;Samples;Min_cycle;Max_cycle;Signal;HPM_P1;HPM_P2
2022/03/31 00:00:34;;;;;;;10.97;7.07;;;;;;;14.02;70.39;98496.03;5035194;28;20282;-59
2022/03/31 00:03:03;;;;;;;10.67;5.93;;;;;;;14.00;70.29;98488.38;5050397;28;20211;-59
2022/03/31 00:05:30;;;;;;;14.10;6.47;;;;;;;13.85;71.15;98473.00;5045537;28;20701;-60
2022/03/31 00:07:59;;;;;;;13.73;6.90;;;;;;;13.54;72.33;98453.31;5040458;28;20198;-59
2022/03/31 00:10:30;;;;;;;13.00;6.20;;;;;;;13.53;73.00;98473.09;5046004;28;20194;-60
2022/03/31 00:12:58;;;;;;;10.47;6.33;;;;;;;13.44;73.78;98468.44;5034681;28;20201;-60
2022/03/31 00:15:26;;;;;;;8.30;6.87;;;;;;;13.48;74.05;98469.94;5049676;28;20235;-59
2022/03/31 00:17:55;;;;;;;8.30;7.13;;;;;;;13.47;74.25;98486.28;5043910;28;20197;-59
2022/03/31 00:33:49;;;;;;;11.87;6.00;;;;;;;13.09;76.45;98473.00;5040498;28;20183;-59
2022/03/31 00:36:16;;;;;;;6.67;5.90;;;;;;;13.16;76.44;98468.34;5033883;28;20197;-59
2022/03/31 00:39:28;;;;;;;10.73;6.33;;;;;;;13.12;76.03;98469.41;5034841;28;20202;-60
2022/03/31 00:41:36;;;;;;;12.13;5.50;;;;;;;13.17;76.34;98464.88;5041998;28;20197;-59
2022/03/31 00:44:03;;;;;;;15.83;6.47;;;;;;;13.23;75.88;98477.38;5031232;28;20201;-59
2022/03/31 00:46:30;;;;;;;10.37;6.70;;;;;;;13.11;77.04;98465.22;5040245;28;20209;-59
2022/03/31 00:49:01;;;;;;;8.80;6.70;;;;;;;12.98;76.52;98451.31;5034403;28;20202;-60
2022/03/31 00:51:29;;;;;;;10.80;6.60;;;;;;;12.97;77.24;98467.66;5042201;28;20197;-60
2022/03/31 00:53:56;;;;;;;9.87;6.20;;;;;;;13.11;76.77;98481.47;5044250;28;20201;-59
2022/03/31 00:56:25;;;;;;;14.67;6.57;;;;;;;13.14;76.53;98470.19;5045451;28;20196;-59
2022/03/31 00:58:52;;;;;;;9.53;6.80;;;;;;;13.25;75.91;98478.13;5062232;28;20658;-59
2022/03/31 01:01:20;;;;;;;15.07;6.97;;;;;;;13.36;76.11;98472.38;5069000;28;20648;-60
2022/03/31 01:03:47;;;;;;;11.47;6.20;;;;;;;13.44;75.19;98478.75;5058551;28;20200;-59
2022/03/31 01:06:16;;;;;;;7.97;6.50;;;;;;;13.44;74.87;98465.88;5062090;28;20220;-60
2022/03/31 01:08:43;;;;;;;6.53;5.93;;;;;;;13.49;74.78;98463.88;5064693;28;20219;-60
2022/03/31 01:11:11;;;;;;;7.03;6.43;;;;;;;13.56;73.99;98467.78;5063941;28;20193;-59
2022/03/31 01:13:38;;;;;;;8.70;6.27;;;;;;;13.49;74.54;98473.34;5067006;28;20737;-60
2022/03/31 01:16:06;;;;;;;9.00;6.37;;;;;;;13.34;76.14;98462.19;5067243;28;20196;-59
2022/03/31 01:18:34;;;;;;;8.10;6.20;;;;;;;13.32;76.17;98471.72;5063835;28;20207;-60
2022/03/31 01:21:01;;;;;;;12.43;5.90;;;;;;;13.34;76.03;98472.47;5062109;28;20204;-60
2022/03/31 01:23:31;;;;;;;9.90;6.53;;;;;;;13.31;75.91;98475.19;5068920;28;20211;-59
2022/03/31 01:25:58;;;;;;;12.43;7.33;;;;;;;13.26;75.79;98463.50;5061616;28;20274;-59
2022/03/31 01:28:25;;;;;;;10.20;6.73;;;;;;;13.40;75.92;98477.28;5066433;28;20262;-59
2022/03/31 01:30:52;;;;;;;9.47;6.53;;;;;;;13.40;75.59;98461.00;5063466;28;20201;-59
2022/03/31 01:33:20;;;;;;;13.87;9.37;;;;;;;13.41;75.32;98478.94;5064420;28;20201;-59
2022/03/31 01:35:47;;;;;;;7.93;6.90;;;;;;;13.40;75.31;98479.84;5063355;28;20247;-60
2022/03/31 01:38:14;;;;;;;10.77;6.90;;;;;;;13.50;74.37;98496.44;5066163;28;20204;-59
2022/03/31 01:40:43;;;;;;;9.10;6.37;;;;;;;13.42;74.77;98475.44;5057443;28;20280;-59
2022/03/31 01:43:10;;;;;;;9.20;6.33;;;;;;;13.16;76.59;98470.91;5065983;28;20679;-60
2022/03/31 01:45:37;;;;;;;16.57;7.77;;;;;;;12.86;78.82;98470.00;5064296;28;20208;-60
2022/03/31 01:48:05;;;;;;;11.40;6.80;;;;;;;12.91;78.64;98463.69;5067588;28;20193;-59
2022/03/31 01:50:32;;;;;;;16.90;7.00;;;;;;;12.88;78.54;98447.59;5057042;28;20611;-59
2022/03/31 01:52:59;;;;;;;6.43;5.83;;;;;;;12.91;78.84;98447.41;5068150;28;20630;-59
2022/03/31 01:55:27;;;;;;;9.37;6.97;;;;;;;12.95;78.60;98438.63;5058165;28;20205;-59
2022/03/31 01:57:55;;;;;;;9.20;6.27;;;;;;;12.97;77.87;98447.09;5064454;28;20600;-59
2022/03/31 02:00:22;;;;;;;9.33;6.67;;;;;;;13.02;78.02;98453.63;5041490;28;20259;-60
2022/03/31 02:02:50;;;;;;;8.33;6.90;;;;;;;13.05;77.65;98465.50;5046124;28;20652;-59
2022/03/31 02:05:17;;;;;;;9.10;7.00;;;;;;;13.03;77.17;98441.59;5043625;28;20858;-59
2022/03/31 02:07:44;;;;;;;10.33;7.83;;;;;;;13.17;76.94;98456.31;5042025;28;20217;-60
2022/03/31 02:10:13;;;;;;;14.73;8.17;;;;;;;13.23;76.01;98441.34;5033954;28;20212;-59
2022/03/31 02:12:40;;;;;;;10.63;7.60;;;;;;;13.18;75.88;98420.22;5041588;28;20193;-59
2022/03/31 02:15:11;;;;;;;9.37;7.93;;;;;;;13.20;76.54;98428.66;5043655;28;20229;-59
2022/03/31 02:17:38;;;;;;;17.93;10.97;;;;;;;13.21;76.64;98448.34;5035605;28;20610;-59
2022/03/31 02:20:06;;;;;;;23.87;13.93;;;;;;;13.14;77.19;98454.75;5045681;28;20716;-59
2022/03/31 02:22:33;;;;;;;14.57;9.67;;;;;;;13.01;77.51;98449.41;5043379;28;20208;-59
2022/03/31 02:25:01;;;;;;;15.90;7.10;;;;;;;13.02;77.53;98445.09;5034981;28;20196;-59
2022/03/31 02:27:28;;;;;;;11.33;8.10;;;;;;;12.71;78.85;98437.38;5048287;28;20212;-59
2022/03/31 02:29:54;;;;;;;7.77;7.07;;;;;;;12.73;79.01;98440.72;5042047;28;20236;-59
2022/03/31 02:32:23;;;;;;;13.83;8.43;;;;;;;12.78;78.99;98443.84;5038559;28;20742;-59
2022/03/31 02:34:51;;;;;;;15.17;8.90;;;;;;;12.83;78.82;98434.97;5037549;28;20204;-59
2022/03/31 02:37:18;;;;;;;11.03;8.70;;;;;;;12.70;79.89;98448.59;5046580;28;20227;-59
2022/03/31 02:39:45;;;;;;;16.90;9.50;;;;;;;12.66;80.37;98447.09;5047492;28;20205;-59
2022/03/31 02:42:12;;;;;;;15.83;8.77;;;;;;;12.62;80.41;98446.44;5035149;28;20303;-59
2022/03/31 02:44:40;;;;;;;17.63;8.27;;;;;;;12.73;79.68;98458.72;5041634;28;20582;-59
2022/03/31 02:47:07;;;;;;;12.43;7.87;;;;;;;12.76;79.50;98449.09;5031380;28;20221;-60
2022/03/31 02:49:36;;;;;;;13.27;8.13;;;;;;;12.84;79.29;98453.81;5041668;28;20201;-59
2022/03/31 02:52:03;;;;;;;14.53;7.83;;;;;;;12.88;78.71;98453.56;5042800;28;20275;-59
2022/03/31 02:57:11;;;;;;;14.00;8.00;;;;;;;12.72;80.15;98465.59;4992586;28;20677;-59
2022/03/31 02:59:38;;;;;;;14.00;8.90;;;;;;;12.51;81.15;98454.69;5037426;28;20286;-59
2022/03/31 03:02:05;;;;;;;12.57;8.53;;;;;;;12.31;82.39;98439.50;5041463;28;20212;-59
2022/03/31 03:04:32;;;;;;;29.93;19.03;;;;;;;12.21;83.51;98438.34;5041765;28;20197;-59
2022/03/31 03:07:01;;;;;;;37.77;22.23;;;;;;;12.28;83.62;98449.13;5040452;28;20213;-59
2022/03/31 03:09:28;;;;;;;49.30;27.43;;;;;;;12.36;83.54;98450.38;5046394;28;20197;-59
2022/03/31 03:11:55;;;;;;;31.20;18.30;;;;;;;12.39;83.31;98445.06;5037167;28;20205;-59
2022/03/31 03:14:22;;;;;;;14.40;11.87;;;;;;;12.45;82.88;98452.47;5037738;28;20307;-59
2022/03/31 03:16:49;;;;;;;14.70;10.50;;;;;;;12.48;82.45;98454.03;5031242;28;20555;-59
2022/03/31 03:19:17;;;;;;;19.57;10.23;;;;;;;12.54;82.08;98441.69;5035602;28;20654;-59
2022/03/31 03:21:44;;;;;;;13.30;8.40;;;;;;;12.57;81.36;98433.81;5042530;28;20254;-59
2022/03/31 03:24:12;;;;;;;9.93;8.03;;;;;;;12.39;82.87;98429.66;5042358;28;20287;-59
2022/03/31 03:26:39;;;;;;;13.80;8.37;;;;;;;12.16;83.63;98419.75;5034638;28;20721;-60
2022/03/31 03:29:06;;;;;;;13.90;8.00;;;;;;;12.06;85.21;98431.41;5031180;28;20209;-59
2022/03/31 03:31:32;;;;;;;21.23;11.10;;;;;;;11.94;85.90;98419.19;5043563;28;20283;-59
2022/03/31 03:33:59;;;;;;;27.77;16.13;;;;;;;11.99;85.90;98428.31;5034920;28;20280;-59
2022/03/31 03:36:27;;;;;;;22.40;12.80;;;;;;;12.05;85.61;98429.78;5036880;28;20203;-59
2022/03/31 03:38:54;;;;;;;21.10;9.43;;;;;;;12.05;85.58;98425.44;5037330;28;20213;-59
2022/03/31 03:41:22;;;;;;;12.77;8.30;;;;;;;12.08;84.94;98419.34;5042815;28;20201;-60
2022/03/31 03:43:50;;;;;;;20.30;10.00;;;;;;;12.11;84.68;98414.03;5045284;28;20285;-59
2022/03/31 03:46:17;;;;;;;16.10;9.73;;;;;;;12.16;84.61;98419.75;5049514;28;20197;-59
2022/03/31 03:48:43;;;;;;;11.53;9.17;;;;;;;12.18;84.54;98410.22;5036481;28;20288;-59
2022/03/31 03:51:10;;;;;;;19.60;8.20;;;;;;;12.19;83.98;98417.00;5039485;28;20280;-59
2022/03/31 03:53:37;;;;;;;19.03;9.27;;;;;;;12.25;84.20;98432.09;5042917;28;20287;-60
2022/03/31 03:56:05;;;;;;;25.77;13.07;;;;;;;12.31;84.06;98436.13;5037056;28;20289;-59
2022/03/31 03:58:34;;;;;;;18.70;12.73;;;;;;;12.29;84.00;98431.03;5042063;28;20224;-59
2022/03/31 04:01:00;;;;;;;14.97;10.33;;;;;;;12.29;84.58;98425.91;5041268;28;20209;-59
2022/03/31 04:03:28;;;;;;;23.00;15.30;;;;;;;12.26;83.95;98428.63;5040856;28;20286;-58
2022/03/31 04:05:55;;;;;;;18.47;11.67;;;;;;;12.25;84.11;98437.25;5050589;28;20281;-59
2022/03/31 04:08:23;;;;;;;12.60;9.73;;;;;;;12.19;84.50;98442.72;5044043;28;20217;-59
2022/03/31 04:10:50;;;;;;;18.37;9.77;;;;;;;12.23;83.69;98433.94;5042132;28;20204;-59
2022/03/31 04:13:17;;;;;;;16.20;9.53;;;;;;;12.12;84.55;98425.16;5040774;28;20229;-59
2022/03/31 04:15:46;;;;;;;19.97;10.33;;;;;;;12.02;85.45;98414.47;5036935;28;20721;-59
2022/03/31 04:18:12;;;;;;;14.07;10.90;;;;;;;11.94;86.47;98416.63;5048097;28;20626;-59
2022/03/31 04:20:39;;;;;;;25.00;10.13;;;;;;;11.97;86.92;98419.88;5040614;28;20231;-59
2022/03/31 04:23:06;;;;;;;21.60;11.17;;;;;;;12.02;86.43;98420.47;5043320;28;20292;-59
2022/03/31 04:25:33;;;;;;;32.50;12.70;;;;;;;12.09;86.18;98415.84;5045187;28;20213;-60
2022/03/31 04:28:00;;;;;;;26.67;11.20;;;;;;;12.15;85.91;98418.06;5037320;28;20312;-59
2022/03/31 04:30:27;;;;;;;19.80;11.20;;;;;;;12.13;85.93;98425.03;5039865;28;20288;-60
2022/03/31 04:32:55;;;;;;;10.13;9.13;;;;;;;12.18;86.49;98429.97;5043761;28;20289;-59
2022/03/31 04:35:22;;;;;;;16.57;9.50;;;;;;;12.17;86.65;98429.13;5042442;28;20670;-59
2022/03/31 04:37:50;;;;;;;20.87;9.90;;;;;;;12.20;86.47;98431.53;5042759;28;20276;-59
2022/03/31 04:40:17;;;;;;;11.67;9.20;;;;;;;12.17;86.32;98423.16;5045216;28;20197;-59
2022/03/31 04:42:44;;;;;;;13.70;9.00;;;;;;;12.18;86.10;98415.34;5043865;28;20282;-59
2022/03/31 04:45:11;;;;;;;15.27;9.97;;;;;;;12.22;85.93;98416.84;5045764;28;20192;-59
2022/03/31 04:47:39;;;;;;;19.27;10.37;;;;;;;12.23;86.32;98413.38;5043158;28;20218;-59
2022/03/31 04:50:08;;;;;;;20.07;10.03;;;;;;;12.18;88.35;98429.97;5052441;28;20251;-59
2022/03/31 04:52:35;;;;;;;17.17;9.67;;;;;;;12.19;88.30;98447.84;5041831;28;20193;-59
2022/03/31 04:55:02;;;;;;;14.10;8.77;;;;;;;12.10;87.88;98443.19;5044160;28;20291;-60
2022/03/31 04:57:29;;;;;;;13.40;9.07;;;;;;;11.87;88.42;98425.56;5047157;28;20303;-59
2022/03/31 04:59:55;;;;;;;19.73;10.33;;;;;;;12.04;89.08;98462.31;5060661;28;20279;-60
2022/03/31 05:02:22;;;;;;;23.33;9.60;;;;;;;12.02;89.97;98486.41;5063792;28;20226;-59
2022/03/31 05:04:49;;;;;;;11.77;9.23;;;;;;;12.03;90.64;98488.06;5062058;28;20208;-60
2022/03/31 05:07:18;;;;;;;9.83;9.00;;;;;;;12.06;90.32;98482.78;5066286;28;20216;-59
2022/03/31 05:09:45;;;;;;;11.93;9.90;;;;;;;12.07;89.38;98461.34;5065367;28;20207;-60
2022/03/31 05:12:13;;;;;;;16.00;10.50;;;;;;;11.93;90.00;98456.06;5065244;28;20283;-59
2022/03/31 05:14:40;;;;;;;14.97;11.13;;;;;;;11.97;89.93;98467.84;5064839;28;20696;-59
2022/03/31 05:17:08;;;;;;;32.27;10.97;;;;;;;12.04;91.13;98479.47;5054805;28;20622;-59
2022/03/31 05:19:34;;;;;;;51.03;13.47;;;;;;;12.06;91.35;98473.34;5061964;28;20254;-59
2022/03/31 05:22:01;;;;;;;23.30;9.17;;;;;;;12.07;91.62;98469.03;5064296;28;20334;-59
2022/03/31 05:24:30;;;;;;;28.37;9.33;;;;;;;12.04;90.62;98454.63;5061961;28;20212;-59
2022/03/31 05:26:57;;;;;;;24.47;14.33;;;;;;;11.89;91.06;98459.72;5061426;28;20196;-60
2022/03/31 05:29:24;;;;;;;22.33;11.93;;;;;;;11.97;91.50;98452.44;5061718;28;20208;-59
2022/03/31 05:31:51;;;;;;;14.83;10.20;;;;;;;12.10;90.81;98458.59;5062421;28;20228;-59
2022/03/31 05:34:18;;;;;;;20.70;10.83;;;;;;;12.15;91.51;98466.09;5057294;28;20665;-59
2022/03/31 05:36:46;;;;;;;24.13;10.63;;;;;;;12.14;93.54;98470.38;5052670;28;20627;-62
2022/03/31 05:39:13;;;;;;;18.83;9.93;;;;;;;12.20;93.66;98462.38;5052497;28;20627;-63
2022/03/31 05:41:41;;;;;;;18.03;10.57;;;;;;;12.09;94.44;98451.78;5052755;28;20201;-63
2022/03/31 05:44:08;;;;;;;14.10;10.50;;;;;;;11.88;97.02;98451.16;5055685;28;20283;-63
2022/03/31 05:46:35;;;;;;;14.73;9.90;;;;;;;11.97;97.52;98467.84;5071721;28;20291;-63
2022/03/31 05:49:03;;;;;;;16.97;11.13;;;;;;;12.04;100.00;98492.31;5052552;28;20290;-62
2022/03/31 05:51:30;;;;;;;15.60;10.03;;;;;;;12.04;100.00;98497.44;5052704;28;20207;-62
2022/03/31 05:53:57;;;;;;;17.10;9.47;;;;;;;12.01;100.00;98484.75;5052680;28;20292;-63
2022/03/31 05:56:24;;;;;;;13.70;9.33;;;;;;;11.67;100.00;98464.19;5052823;28;20220;-62
2022/03/31 05:58:52;;;;;;;17.57;9.57;;;;;;;11.82;100.00;98484.03;5052815;28;20243;-62
2022/03/31 06:01:19;;;;;;;18.63;10.47;;;;;;;11.92;100.00;98486.03;5063261;28;20751;-62
2022/03/31 06:03:46;;;;;;;14.60;9.60;;;;;;;11.97;100.00;98493.53;5072844;28;20648;-62
2022/03/31 06:06:13;;;;;;;19.73;10.40;;;;;;;12.08;100.00;98484.34;5071975;28;20200;-62
2022/03/31 06:08:40;;;;;;;12.10;9.77;;;;;;;11.97;99.76;98462.69;5072399;28;20215;-62
2022/03/31 06:11:07;;;;;;;13.47;11.67;;;;;;;11.87;100.00;98471.78;5066939;28;20206;-62
2022/03/31 06:13:34;;;;;;;16.37;11.53;;;;;;;11.93;100.00;98486.88;5072628;28;20279;-62
2022/03/31 06:16:03;;;;;;;21.30;13.27;;;;;;;12.01;100.00;98489.91;5072420;28;20595;-62
2022/03/31 06:18:30;;;;;;;20.87;10.60;;;;;;;11.95;100.00;98500.47;5060806;28;20201;-62
2022/03/31 06:20:58;;;;;;;11.43;9.30;;;;;;;11.80;100.00;98502.06;5060585;28;20201;-63
2022/03/31 06:23:25;;;;;;;19.53;11.13;;;;;;;11.78;100.00;98513.31;5068771;28;20554;-62
2022/03/31 06:25:53;;;;;;;20.40;10.70;;;;;;;11.89;100.00;98524.72;5067524;28;20199;-62
2022/03/31 06:28:20;;;;;;;16.27;9.03;;;;;;;11.95;100.00;98503.06;5071754;28;20223;-62
2022/03/31 06:30:48;;;;;;;12.77;10.20;;;;;;;12.09;100.00;98492.91;5071834;28;20204;-62
2022/03/31 06:33:17;;;;;;;16.73;10.73;;;;;;;12.13;100.00;98478.16;5071765;28;20200;-63
2022/03/31 06:35:44;;;;;;;20.00;11.67;;;;;;;12.13;100.00;98473.84;5066677;28;20279;-62
2022/03/31 06:38:12;;;;;;;12.07;9.13;;;;;;;12.21;97.05;98468.34;5052520;28;20283;-62
2022/03/31 06:40:41;;;;;;;11.00;8.80;;;;;;;12.20;95.99;98439.25;5071643;28;20196;-63
2022/03/31 06:43:09;;;;;;;16.53;9.93;;;;;;;12.28;95.38;98460.22;5071524;28;20605;-62
2022/03/31 06:45:36;;;;;;;20.93;9.73;;;;;;;12.34;95.45;98435.97;5071330;28;20683;-63
2022/03/31 06:48:05;;;;;;;22.57;10.87;;;;;;;12.39;96.55;98419.38;5070809;28;20254;-62
2022/03/31 06:50:35;;;;;;;19.17;9.97;;;;;;;12.42;96.19;98408.94;5051696;28;20224;-62
2022/03/31 06:53:03;;;;;;;24.90;14.50;;;;;;;12.51;95.98;98430.72;5051597;28;20228;-63
2022/03/31 06:55:30;;;;;;;18.33;10.97;;;;;;;12.61;95.69;98440.44;5053785;28;20197;-62
2022/03/31 06:57:57;;;;;;;20.40;11.60;;;;;;;12.69;95.49;98429.75;5068190;28;20251;-62
2022/03/31 07:00:25;;;;;;;20.07;10.73;;;;;;;12.72;94.59;98444.19;5071231;28;20284;-62
2022/03/31 07:02:52;;;;;;;17.83;9.67;;;;;;;12.82;93.76;98453.91;5071574;28;20199;-62
2022/03/31 07:05:19;;;;;;;26.23;15.93;;;;;;;12.97;93.05;98455.63;5071348;28;20574;-62
2022/03/31 07:07:48;;;;;;;28.27;13.63;;;;;;;13.13;92.55;98458.22;5071011;28;20223;-62
2022/03/31 07:10:15;;;;;;;38.70;26.90;;;;;;;13.28;93.49;98475.38;5071302;28;20286;-62
2022/03/31 07:12:43;;;;;;;45.77;24.50;;;;;;;13.32;92.46;98464.00;5071398;28;20242;-62
2022/03/31 07:15:10;;;;;;;37.80;19.93;;;;;;;13.55;91.09;98476.41;5059793;28;20283;-62
2022/03/31 07:17:37;;;;;;;26.53;15.23;;;;;;;13.66;90.33;98497.25;5065833;28;20200;-62
2022/03/31 07:20:05;;;;;;;19.97;10.57;;;;;;;13.72;89.89;98484.91;5064636;28;20744;-63
2022/03/31 07:22:33;;;;;;;38.57;22.67;;;;;;;13.79;89.10;98499.13;5061016;28;20216;-62
2022/03/31 07:25:01;;;;;;;20.60;12.93;;;;;;;13.78;88.36;98498.28;5051081;28;20211;-62
2022/03/31 07:27:28;;;;;;;17.50;9.23;;;;;;;13.89;88.36;98500.25;5050910;28;20288;-62
2022/03/31 07:29:55;;;;;;;27.57;11.47;;;;;;;13.92;89.03;98510.38;5055633;28;20272;-62
2022/03/31 07:32:22;;;;;;;29.67;10.03;;;;;;;14.07;87.28;98510.31;5052101;28;20740;-62
2022/03/31 07:34:49;;;;;;;22.33;10.37;;;;;;;14.13;86.62;98498.81;5070570;28;20223;-63
2022/03/31 07:37:16;;;;;;;18.40;10.20;;;;;;;14.20;86.35;98503.50;5055892;28;20200;-62
2022/03/31 07:39:45;;;;;;;24.63;14.13;;;;;;;14.27;87.42;98493.66;5061254;28;20188;-63
2022/03/31 07:42:14;;;;;;;21.20;11.13;;;;;;;14.31;85.96;98497.72;5071116;28;20299;-63
2022/03/31 07:44:41;;;;;;;38.80;14.50;;;;;;;14.38;85.89;98496.44;5052316;28;20235;-62
2022/03/31 07:47:08;;;;;;;17.57;12.13;;;;;;;14.52;85.43;98490.47;5051271;28;20197;-69
2022/03/31 07:49:34;;;;;;;27.07;13.23;;;;;;;14.59;85.55;98474.53;5056989;28;20221;-68
2022/03/31 07:52:02;;;;;;;23.47;11.07;;;;;;;14.74;85.08;98480.50;5055585;28;20211;-68
2022/03/31 07:54:29;;;;;;;23.17;10.87;;;;;;;14.87;85.15;98465.09;5069181;28;20204;-69
2022/03/31 07:56:56;;;;;;;24.37;13.97;;;;;;;14.92;84.30;98463.06;5051468;28;20299;-68
2022/03/31 07:59:29;;;;;;;55.23;23.70;;;;;;;15.13;83.89;98472.03;5067074;28;20235;-69
2022/03/31 08:01:56;;;;;;;28.67;19.03;;;;;;;15.17;82.29;98468.34;5064129;28;20291;-68
2022/03/31 08:04:23;;;;;;;29.23;20.27;;;;;;;15.29;82.90;98456.38;5055578;28;20210;-69
2022/03/31 08:06:50;;;;;;;20.27;12.70;;;;;;;15.37;82.20;98449.81;5055420;28;20732;-69
2022/03/31 08:09:21;;;;;;;32.63;11.90;;;;;;;15.43;81.62;98454.59;5056683;28;20212;-69
2022/03/31 08:11:49;;;;;;;25.47;11.23;;;;;;;15.50;80.55;98463.63;5075380;28;20646;-66
2022/03/31 08:14:17;;;;;;;18.60;10.70;;;;;;;15.67;81.39;98460.75;5074719;28;20207;-69
2022/03/31 08:16:46;;;;;;;17.67;10.57;;;;;;;15.77;80.63;98464.38;5064132;28;20204;-68
2022/03/31 08:19:13;;;;;;;15.70;10.47;;;;;;;15.83;80.92;98467.50;5066729;28;20188;-69
2022/03/31 08:21:42;;;;;;;20.47;11.47;;;;;;;15.86;80.94;98456.97;5068471;28;20291;-70
2022/03/31 08:24:09;;;;;;;28.63;12.07;;;;;;;15.89;80.55;98455.00;5059268;28;20204;-68
2022/03/31 08:26:36;;;;;;;33.20;12.57;;;;;;;16.01;79.53;98456.78;5055230;28;20216;-68
2022/03/31 08:29:03;;;;;;;21.47;11.80;;;;;;;16.09;78.56;98453.69;5055001;28;20227;-69
2022/03/31 08:31:30;;;;;;;28.30;13.70;;;;;;;16.15;79.13;98472.19;5059329;28;20201;-68
2022/03/31 08:33:59;;;;;;;21.17;12.40;;;;;;;16.18;77.89;98484.09;5061837;28;20205;-67
2022/03/31 08:36:26;;;;;;;34.13;13.77;;;;;;;16.17;78.97;98474.66;5062063;28;20286;-68
2022/03/31 08:38:52;;;;;;;16.70;9.90;;;;;;;16.24;78.75;98468.16;5064022;28;20283;-69
2022/03/31 08:41:23;;;;;;;20.43;10.20;;;;;;;16.25;79.92;98444.75;5074671;28;20203;-68
2022/03/31 08:43:51;;;;;;;27.83;13.03;;;;;;;16.24;80.57;98447.47;5060670;28;20281;-68
2022/03/31 08:46:20;;;;;;;15.70;10.23;;;;;;;16.29;79.97;98442.78;5055115;28;20291;-69
2022/03/31 08:48:47;;;;;;;20.80;11.10;;;;;;;16.30;80.56;98457.38;5070780;28;20332;-69
2022/03/31 08:51:15;;;;;;;28.67;13.10;;;;;;;16.32;80.35;98440.00;5060414;28;20285;-69
2022/03/31 08:53:42;;;;;;;20.97;12.47;;;;;;;16.40;81.62;98435.13;5054693;28;20209;-69
2022/03/31 08:56:11;;;;;;;23.43;10.30;;;;;;;16.49;79.31;98406.03;5054493;28;20295;-68
2022/03/31 08:58:38;;;;;;;36.27;13.80;;;;;;;16.58;80.33;98414.94;5066106;28;20670;-68
2022/03/31 09:01:05;;;;;;;28.67;15.07;;;;;;;16.65;80.89;98405.81;5066060;28;20199;-68
2022/03/31 09:03:35;;;;;;;21.77;10.53;;;;;;;16.71;79.47;98398.44;5061298;28;20295;-69
2022/03/31 09:06:07;;;;;;;23.83;10.83;;;;;;;16.69;79.15;98392.56;5054410;28;20280;-68
2022/03/31 09:08:36;;;;;;;21.57;11.37;;;;;;;16.69;80.64;98386.56;5057408;28;20605;-68
2022/03/31 09:11:03;;;;;;;23.37;10.70;;;;;;;16.78;80.07;98371.19;5053484;28;20302;-68
2022/03/31 09:13:34;;;;;;;15.97;10.07;;;;;;;16.90;79.56;98379.03;5066978;28;20206;-69
2022/03/31 09:16:03;;;;;;;25.73;13.73;;;;;;;17.05;78.95;98408.97;5071245;28;20280;-69
2022/03/31 09:18:35;;;;;;;19.53;12.03;;;;;;;17.11;79.16;98393.00;5058111;28;20200;-68
2022/03/31 09:21:04;;;;;;;27.97;14.30;;;;;;;17.13;78.75;98386.75;5062919;28;20204;-69
2022/03/31 09:23:33;;;;;;;35.00;14.73;;;;;;;17.25;77.71;98418.72;5054101;28;20209;-68
2022/03/31 09:26:07;;;;;;;18.93;10.90;;;;;;;17.32;78.97;98423.34;5061725;28;20253;-69
2022/03/31 09:28:36;;;;;;;30.93;12.00;;;;;;;17.46;79.77;98437.03;5068316;28;20230;-69
2022/03/31 09:31:03;;;;;;;24.07;12.03;;;;;;;17.41;79.05;98427.03;5068465;28;20669;-68
2022/03/31 09:33:33;;;;;;;22.97;10.30;;;;;;;17.30;78.59;98403.66;5056500;28;20647;-69
2022/03/31 09:36:02;;;;;;;18.57;10.00;;;;;;;17.30;79.17;98416.63;5053862;28;20272;-68
2022/03/31 09:38:29;;;;;;;25.37;12.33;;;;;;;17.30;79.58;98408.84;5067692;28;20579;-68
2022/03/31 09:40:57;;;;;;;21.20;10.07;;;;;;;17.35;78.51;98406.72;5067142;28;20287;-69
2022/03/31 09:43:26;;;;;;;19.17;10.03;;;;;;;17.46;78.99;98409.38;5068638;28;20200;-68
2022/03/31 09:45:53;;;;;;;32.40;14.23;;;;;;;17.59;79.94;98396.38;5054084;28;20720;-70
2022/03/31 09:48:22;;;;;;;30.90;10.60;;;;;;;17.67;80.68;98412.97;5065137;28;20193;-68
2022/03/31 09:50:50;;;;;;;23.57;11.43;;;;;;;17.81;80.02;98405.00;5072115;28;20643;-68
2022/03/31 09:53:17;;;;;;;30.50;11.23;;;;;;;17.90;78.41;98387.94;5062347;28;20204;-69
2022/03/31 09:55:45;;;;;;;22.07;11.53;;;;;;;18.04;77.75;98373.91;5060797;28;20200;-69
2022/03/31 09:58:18;;;;;;;21.70;10.20;;;;;;;18.20;77.58;98359.66;5071013;28;20232;-68
2022/03/31 10:00:47;;;;;;;24.80;10.07;;;;;;;18.32;77.19;98358.69;5053356;28;20291;-69
2022/03/31 10:03:15;;;;;;;23.97;11.27;;;;;;;18.34;76.30;98343.00;5061759;28;20211;-69
2022/03/31 10:05:45;;;;;;;23.90;8.77;;;;;;;18.54;73.99;98342.31;5055274;28;20593;-69
2022/03/31 10:08:13;;;;;;;36.20;11.07;;;;;;;18.64;71.95;98342.41;5056477;28;20200;-69
2022/03/31 10:10:40;;;;;;;24.93;8.60;;;;;;;18.74;68.60;98333.72;5058429;28;20577;-68
2022/03/31 10:13:16;;;;;;;15.17;9.27;;;;;;;18.83;68.52;98338.22;5054641;28;20256;-69
2022/03/31 10:15:45;;;;;;;21.90;8.57;;;;;;;19.00;68.36;98354.22;5054514;28;20203;-68
2022/03/31 10:18:15;;;;;;;17.40;8.17;;;;;;;19.17;66.73;98372.66;5053249;28;20204;-68
2022/03/31 10:20:54;;;;;;;22.63;8.40;;;;;;;19.28;65.37;98370.00;5062503;28;20204;-68
2022/03/31 10:26:05;;;;;;;29.43;8.37;;;;;;;19.49;66.11;98341.44;5058905;28;20211;-68
2022/03/31 10:28:32;;;;;;;21.47;7.80;;;;;;;19.60;65.04;98344.00;5072738;28;20207;-68
2022/03/31 10:31:01;;;;;;;26.03;9.23;;;;;;;19.54;65.06;98315.91;5072670;28;20299;-68
2022/03/31 10:33:31;;;;;;;17.70;8.47;;;;;;;19.62;65.36;98302.25;5056132;28;20663;-69
2022/03/31 10:36:09;;;;;;;35.47;7.27;;;;;;;19.71;61.60;98315.28;5065472;28;20208;-69
2022/03/31 10:38:36;;;;;;;18.37;7.40;;;;;;;19.71;61.22;98310.09;5053996;28;20208;-69
2022/03/31 10:41:06;;;;;;;20.93;8.33;;;;;;;19.87;61.74;98320.84;5056719;28;20250;-69
2022/03/31 10:43:34;;;;;;;15.23;7.17;;;;;;;20.00;59.91;98330.22;5066647;28;20280;-68
2022/03/31 10:46:04;;;;;;;33.37;7.97;;;;;;;20.10;59.79;98325.84;5056329;28;20200;-69
2022/03/31 10:48:33;;;;;;;14.57;7.30;;;;;;;20.08;59.95;98314.75;5059134;28;20201;-69
2022/03/31 10:51:06;;;;;;;13.83;6.83;;;;;;;20.03;57.95;98303.94;5056104;28;20287;-69
2022/03/31 10:53:35;;;;;;;20.37;7.23;;;;;;;19.95;58.91;98298.56;5065499;28;20717;-68
2022/03/31 10:56:04;;;;;;;22.20;7.03;;;;;;;20.02;60.26;98318.72;5064404;28;20287;-68
2022/03/31 10:58:31;;;;;;;17.27;7.53;;;;;;;19.92;59.71;98318.69;5072228;28;20243;-68
2022/03/31 11:01:01;;;;;;;21.23;8.13;;;;;;;19.84;60.06;98300.28;5060889;28;20283;-69
2022/03/31 11:03:28;;;;;;;19.20;7.80;;;;;;;19.99;60.05;98307.75;5058486;28;20215;-68
2022/03/31 11:05:59;;;;;;;21.33;8.90;;;;;;;20.05;59.50;98310.66;5072027;28;20287;-68
2022/03/31 11:08:26;;;;;;;29.83;7.97;;;;;;;20.10;59.07;98311.06;5065336;28;20684;-68
2022/03/31 11:10:55;;;;;;;17.77;7.90;;;;;;;20.18;59.55;98320.81;5062342;28;20693;-69
2022/03/31 11:13:32;;;;;;;16.47;7.53;;;;;;;20.22;57.75;98304.00;5056408;28;20197;-68
2022/03/31 11:15:59;;;;;;;29.90;12.93;;;;;;;20.32;57.21;98284.84;5059759;28;20710;-68
2022/03/31 11:18:26;;;;;;;20.33;7.37;;;;;;;20.37;58.10;98279.25;5068448;28;20204;-69
2022/03/31 11:20:58;;;;;;;28.27;8.70;;;;;;;20.51;58.05;98278.06;5065621;28;20679;-68
2022/03/31 11:23:26;;;;;;;21.93;7.87;;;;;;;20.61;57.49;98278.88;5060207;28;20223;-68
2022/03/31 11:25:53;;;;;;;18.57;5.30;;;;;;;20.73;55.32;98278.63;5059888;28;20695;-68
2022/03/31 11:28:20;;;;;;;24.33;5.90;;;;;;;20.96;53.15;98273.94;5067731;28;20628;-68
2022/03/31 11:30:48;;;;;;;23.87;5.93;;;;;;;21.14;50.92;98274.06;5062130;28;20754;-70
2022/03/31 11:33:15;;;;;;;21.40;5.53;;;;;;;21.33;50.03;98266.22;5052967;28;20238;-68
2022/03/31 11:35:43;;;;;;;23.90;4.73;;;;;;;21.38;48.70;98253.59;5055424;28;20204;-68
2022/03/31 11:38:17;;;;;;;16.37;4.57;;;;;;;21.53;49.41;98261.78;5064091;28;20214;-67
2022/03/31 11:40:46;;;;;;;22.07;6.37;;;;;;;21.55;47.99;98239.78;5057138;28;20593;-67
2022/03/31 11:43:14;;;;;;;37.63;6.63;;;;;;;21.57;47.28;98243.09;5069349;28;20295;-67